Time;durP1;ratioP1;P1;durP2;ratioP2;P2;SDS_P1;SDS_P2;PMS_P1;PMS_P2;Temp;Humidity;BMP_temperature;BMP_pressure;BME280_temperature;BME280_humidity;BME280_pressure;Samples;Min_cycle;Max_cycle;Signal;HPM_P1;HPM_P2
2023/03/27 00:01:25;;;;;;;2.80;1.15;;;3.60;99.90;;;2.71;71.74;100024.31;4877334;29;20037;-77
2023/03/27 00:03:52;;;;;;;10.95;1.40;;;3.60;99.90;;;2.83;72.37;100032.81;4876763;29;20545;-77
2023/03/27 00:06:19;;;;;;;3.60;1.05;;;3.60;99.90;;;2.83;72.92;100044.44;4877169;29;20114;-76
2023/03/27 00:08:49;;;;;;;4.53;1.17;;;3.70;99.90;;;2.79;72.24;100051.22;4877212;29;20116;-76
2023/03/27 00:11:16;;;;;;;2.35;0.70;;;3.60;99.90;;;2.76;72.07;100054.25;4877137;29;20033;-76
2023/03/27 00:13:43;;;;;;;1.08;0.50;;;3.60;99.90;;;2.62;72.09;100061.25;4877324;29;20029;-77
2023/03/27 00:16:09;;;;;;;9.55;0.80;;;3.60;99.90;;;2.59;72.33;100064.31;4863741;29;20387;-77
2023/03/27 00:18:35;;;;;;;7.88;1.10;;;3.50;99.90;;;2.39;71.88;100045.09;4859682;29;20101;-78
2023/03/27 00:21:02;;;;;;;10.05;1.17;;;3.40;99.90;;;2.35;71.82;100063.44;4877589;29;20045;-77
2023/03/27 00:23:30;;;;;;;7.00;1.20;;;3.30;99.90;;;2.26;71.93;100061.81;4876865;29;20111;-77
2023/03/27 00:25:57;;;;;;;5.97;1.20;;;3.20;99.90;;;2.31;72.48;100091.72;4871109;29;20097;-76
2023/03/27 00:28:29;;;;;;;8.10;0.97;;;3.20;99.90;;;2.31;72.44;100080.97;4873723;29;20044;-76
2023/03/27 00:30:56;;;;;;;7.63;1.17;;;3.10;99.90;;;2.14;72.37;100091.84;4875520;29;20045;-77
2023/03/27 00:33:24;;;;;;;6.05;1.23;;;3.00;99.90;;;2.05;73.41;100098.25;4876556;29;20055;-77
2023/03/27 00:35:50;;;;;;;5.55;1.45;;;2.90;99.90;;;1.99;73.35;100096.25;4875962;29;20071;-76
2023/03/27 00:38:17;;;;;;;8.45;0.77;;;2.80;99.90;;;1.88;73.96;100110.09;4876585;29;20041;-76
2023/03/27 00:40:45;;;;;;;8.40;1.10;;;2.80;99.90;;;1.86;74.20;100113.81;4876136;29;20047;-76
2023/03/27 00:43:42;;;;;;;;;;;2.70;99.90;;;1.77;74.55;100119.38;4876011;29;20049;-77
2023/03/27 00:46:43;;;;;;;6.80;1.15;;;2.60;99.90;;;1.72;74.90;100119.88;4874554;29;19920;-76
2023/03/27 00:49:13;;;;;;;8.20;1.45;;;2.50;99.90;;;1.77;74.80;100132.81;4848824;29;20059;-77
2023/03/27 00:51:45;;;;;;;3.63;0.93;;;2.50;99.90;;;1.61;75.03;100137.22;4860935;29;20125;-76
2023/03/27 00:54:25;;;;;;;5.07;0.82;;;2.40;99.90;;;1.52;75.46;100136.38;4874768;29;20045;-76
2023/03/27 00:56:57;;;;;;;7.05;1.40;;;2.40;99.90;;;1.45;75.32;100146.13;4875956;29;20152;-76
2023/03/27 00:59:30;;;;;;;3.20;0.88;;;2.30;99.90;;;1.41;76.22;100152.88;4862698;29;20053;-76
2023/03/27 01:02:00;;;;;;;4.95;0.93;;;2.30;99.90;;;1.41;75.58;100152.88;4845275;29;20026;-77
2023/03/27 01:04:26;;;;;;;9.43;1.42;;;2.40;99.90;;;1.42;76.08;100154.53;4862599;29;20041;-76
2023/03/27 01:06:55;;;;;;;12.15;1.55;;;2.30;99.90;;;1.19;76.21;100135.53;4844244;29;20037;-76
2023/03/27 01:09:21;;;;;;;7.40;1.30;;;2.20;99.90;;;1.39;77.06;100168.31;4874590;29;20061;-75
2023/03/27 01:12:09;;;;;;;6.93;2.10;;;2.20;99.90;;;1.31;77.21;100169.16;4875664;29;20041;-76
2023/03/27 01:15:12;;;;;;;11.60;1.63;;;2.10;99.90;;;1.24;77.84;100173.53;4875720;29;20044;-76
2023/03/27 01:18:28;;;;;;;4.97;1.08;;;2.10;99.90;;;1.20;78.43;100175.72;4843604;29;20037;-77
2023/03/27 01:21:54;;;;;;;7.80;0.93;;;2.00;99.90;;;1.10;78.25;100175.84;4800521;29;20057;-77
2023/03/27 01:25:02;;;;;;;15.95;1.95;;;2.00;99.90;;;1.00;78.98;100186.75;4858299;29;20037;-76
2023/03/27 01:28:01;;;;;;;5.22;1.05;;;1.90;99.90;;;0.95;79.62;100193.66;4863579;29;20116;-77
2023/03/27 01:30:38;;;;;;;5.47;1.20;;;1.80;99.90;;;0.89;79.53;100202.34;4840338;29;20053;-76
2023/03/27 01:33:41;;;;;;;3.45;0.90;;;1.80;99.90;;;0.89;79.68;100202.34;4861295;29;20036;-77
2023/03/27 01:36:23;;;;;;;7.47;1.08;;;1.80;99.90;;;0.99;79.06;100203.06;4872681;29;20504;-76
2023/03/27 01:39:33;;;;;;;5.20;0.98;;;1.90;99.90;;;1.02;79.38;100204.56;4828604;29;20041;-77
2023/03/27 01:42:24;;;;;;;9.02;1.30;;;1.90;99.90;;;0.89;79.51;100205.88;4871608;29;20048;-76
2023/03/27 01:45:00;;;;;;;2.80;1.00;;;1.80;99.90;;;0.87;80.46;100224.00;4876331;29;20407;-76
2023/03/27 01:47:55;;;;;;;4.97;0.85;;;1.70;99.90;;;0.76;79.94;100195.63;4861011;29;20046;-76
2023/03/27 01:50:40;;;;;;;1.95;0.80;;;1.70;99.90;;;0.78;80.59;100220.47;4874015;29;20029;-76
2023/03/27 01:53:36;;;;;;;6.50;1.00;;;1.70;99.90;;;0.86;81.16;100235.78;4862033;29;20136;-76
2023/03/27 01:56:25;;;;;;;9.70;1.65;;;1.60;99.90;;;0.80;80.07;100229.19;4876903;29;20461;-76
2023/03/27 01:59:17;;;;;;;5.38;1.30;;;1.70;99.90;;;0.98;79.73;100234.44;4863911;29;20041;-76
2023/03/27 02:01:53;;;;;;;6.40;1.45;;;1.70;99.90;;;0.91;79.43;100244.16;4864865;29;20160;-77
2023/03/27 02:04:39;;;;;;;7.28;1.15;;;1.70;99.90;;;1.01;78.84;100241.34;4862506;29;20046;-77
2023/03/27 02:07:13;;;;;;;8.70;1.40;;;1.70;99.90;;;1.07;77.88;100234.47;4859270;29;20068;-76
2023/03/27 02:09:56;;;;;;;5.20;1.20;;;1.80;99.90;;;0.97;78.53;100222.00;4868104;29;20033;-76
2023/03/27 02:12:32;;;;;;;9.00;1.73;;;1.70;99.90;;;0.83;78.13;100217.28;4854072;29;20422;-77
2023/03/27 02:15:30;;;;;;;9.35;1.55;;;1.80;99.90;;;1.00;78.54;100245.03;4846401;29;20033;-77
2023/03/27 02:18:03;;;;;;;7.25;1.10;;;1.70;99.90;;;0.92;78.57;100234.25;4847643;29;20057;-76
2023/03/27 02:20:36;;;;;;;6.85;1.27;;;1.70;99.90;;;0.89;78.90;100248.88;4847872;29;20038;-76
2023/03/27 02:23:05;;;;;;;6.95;1.40;;;1.60;99.90;;;0.75;79.63;100249.47;4846243;29;20064;-76
2023/03/27 02:25:38;;;;;;;8.65;1.73;;;1.50;99.90;;;0.76;80.79;100256.53;4848732;29;20060;-76
2023/03/27 02:28:14;;;;;;;7.93;1.92;;;1.20;99.90;;;0.80;80.41;100257.91;4845852;29;20482;-76
2023/03/27 02:31:24;;;;;;;9.95;1.50;;;1.30;99.90;;;0.88;80.90;100266.00;4878384;29;20041;-76
2023/03/27 02:34:43;;;;;;;6.32;1.05;;;1.20;99.90;;;0.77;81.34;100274.31;4867309;29;20044;-76
2023/03/27 02:37:27;;;;;;;10.85;1.40;;;1.10;99.90;;;0.74;81.69;100271.97;4828987;29;20049;-76
2023/03/27 02:40:45;;;;;;;12.05;1.27;;;1.00;99.90;;;0.62;82.59;100295.56;4874468;29;20045;-77
2023/03/27 02:43:41;;;;;;;10.35;1.17;;;0.90;99.90;;;0.49;83.84;100288.81;4866615;29;20508;-76
2023/03/27 02:46:27;;;;;;;5.72;1.02;;;0.80;99.90;;;0.42;84.13;100299.34;4875392;29;20098;-76
2023/03/27 02:48:58;;;;;;;4.55;0.90;;;0.90;99.90;;;0.53;83.79;100302.75;4862915;29;20145;-77
2023/03/27 02:51:39;;;;;;;6.00;1.45;;;1.00;99.90;;;0.52;84.10;100293.84;4847605;29;20124;-77
2023/03/27 02:54:13;;;;;;;17.33;1.85;;;1.00;99.90;;;0.56;83.71;100299.75;4877899;29;20056;-76
2023/03/27 02:56:47;;;;;;;7.75;1.35;;;1.00;99.90;;;0.65;83.57;100306.84;4844914;29;20029;-77
2023/03/27 02:59:41;;;;;;;9.48;1.38;;;1.10;99.90;;;0.45;83.54;100289.28;4862239;29;20127;-76
2023/03/27 03:02:15;;;;;;;4.32;0.85;;;1.10;99.90;;;0.56;83.88;100313.19;4842758;29;20092;-76
2023/03/27 03:05:04;;;;;;;6.82;1.00;;;0.90;99.90;;;0.43;84.67;100327.84;4858818;29;20172;-77
2023/03/27 03:07:37;;;;;;;8.13;1.48;;;0.70;99.90;;;0.32;85.81;100328.13;4863740;29;20549;-77
2023/03/27 03:10:07;;;;;;;7.32;1.15;;;0.50;99.90;;;0.35;85.52;100335.00;4848910;29;20553;-78
2023/03/27 03:12:32;;;;;;;5.15;1.15;;;0.50;99.90;;;0.32;86.45;100338.88;4850179;29;20026;-78
2023/03/27 03:14:58;;;;;;;6.75;1.55;;;0.60;99.90;;;0.51;85.48;100340.50;4873089;29;20100;-77
2023/03/27 03:17:24;;;;;;;6.53;1.40;;;0.80;99.90;;;0.50;84.84;100325.41;4878116;29;20044;-77
2023/03/27 03:19:50;;;;;;;5.43;1.30;;;0.80;99.90;;;0.50;85.61;100332.59;4866172;29;20033;-77
2023/03/27 03:22:16;;;;;;;7.15;1.40;;;0.70;99.90;;;0.43;85.92;100324.34;4877666;29;20453;-76
2023/03/27 03:24:42;;;;;;;8.52;1.95;;;0.80;99.90;;;0.29;86.33;100317.72;4877905;29;20037;-76
2023/03/27 03:27:11;;;;;;;6.65;1.70;;;0.70;99.90;;;0.32;86.70;100330.81;4865269;29;20523;-77
2023/03/27 03:29:47;;;;;;;7.10;1.17;;;0.60;99.90;;;0.24;87.60;100342.34;4850230;29;20148;-76
2023/03/27 03:32:22;;;;;;;7.57;1.25;;;0.60;99.90;;;0.24;89.12;100353.06;4873611;29;20066;-77
2023/03/27 03:34:50;;;;;;;7.65;1.40;;;0.60;99.90;;;0.14;89.64;100347.78;4873424;29;20120;-76
2023/03/27 03:37:16;;;;;;;10.95;1.70;;;0.60;99.90;;;0.06;89.82;100328.97;4861155;29;20520;-76
2023/03/27 03:39:41;;;;;;;6.28;1.27;;;0.60;99.90;;;0.21;89.68;100357.88;4860689;29;20040;-77
2023/03/27 03:42:07;;;;;;;9.82;1.38;;;0.60;99.90;;;0.18;90.42;100363.56;4877592;29;20120;-77
2023/03/27 03:44:33;;;;;;;7.45;1.08;;;0.50;99.90;;;0.16;90.94;100365.56;4866748;29;20108;-77
2023/03/27 03:47:07;;;;;;;9.45;1.35;;;0.50;99.90;;;0.20;91.81;100375.00;4862817;29;20068;-76
2023/03/27 03:49:33;;;;;;;12.50;1.92;;;0.60;99.90;;;0.30;91.43;100378.44;4877163;29;20037;-77
2023/03/27 03:51:59;;;;;;;9.15;1.75;;;0.70;99.90;;;0.36;91.90;100385.88;4844536;29;20041;-77
2023/03/27 03:54:25;;;;;;;9.20;1.50;;;0.80;99.90;;;0.38;92.33;100377.63;4850346;29;20040;-77
2023/03/27 03:56:50;;;;;;;10.18;1.60;;;0.90;99.90;;;0.45;92.05;100393.97;4847855;29;20052;-77
2023/03/27 03:59:16;;;;;;;8.52;1.33;;;0.90;99.90;;;0.43;92.35;100394.13;4876800;29;20391;-77
2023/03/27 04:02:27;;;;;;;8.20;1.92;;;0.80;99.90;;;0.49;93.47;100396.19;4865703;29;20108;-78
2023/03/27 04:04:57;;;;;;;20.55;2.33;;;0.80;99.90;;;0.56;93.70;100391.03;4846119;29;20046;-77
2023/03/27 04:07:30;;;;;;;12.32;1.73;;;1.00;99.90;;;0.71;94.32;100405.56;4859537;29;20097;-77
2023/03/27 04:10:14;;;;;;;10.27;1.73;;;1.10;99.90;;;0.70;94.67;100400.38;4859850;29;20040;-77
2023/03/27 04:12:45;;;;;;;10.52;2.10;;;1.10;99.90;;;0.62;96.38;100398.47;4877198;29;20032;-78
2023/03/27 04:15:17;;;;;;;7.60;1.40;;;1.10;99.90;;;0.69;97.16;100409.41;4862334;29;20025;-76
2023/03/27 04:18:03;;;;;;;9.90;2.42;;;1.00;99.90;;;0.67;97.75;100404.19;4876998;29;20059;-78
2023/03/27 04:20:33;;;;;;;8.73;1.70;;;1.00;99.90;;;0.59;98.75;100409.53;4876666;29;20041;-77
2023/03/27 04:23:02;;;;;;;13.35;2.20;;;1.00;99.90;;;0.55;98.73;100410.84;4859582;29;20095;-77
2023/03/27 04:25:30;;;;;;;12.93;1.88;;;0.90;99.90;;;0.39;100.00;100411.53;4875417;29;20132;-77
2023/03/27 04:27:57;;;;;;;12.13;1.92;;;0.90;99.90;;;0.50;100.00;100419.34;4860761;29;20445;-80
2023/03/27 04:30:30;;;;;;;10.02;1.60;;;0.90;99.90;;;0.45;100.00;100418.13;4859852;29;20060;-78
2023/03/27 04:33:21;;;;;;;14.68;2.55;;;0.80;99.90;;;0.49;100.00;100433.78;4850096;29;20402;-76
2023/03/27 04:36:07;;;;;;;;;;;0.80;99.90;;;0.47;100.00;100438.47;4871498;29;20189;-78
2023/03/27 04:38:41;;;;;;;11.32;2.05;;;0.80;99.90;;;0.49;100.00;100438.28;4872097;29;20295;-77
2023/03/27 04:41:07;;;;;;;5.50;1.35;;;0.90;99.90;;;0.46;100.00;100436.78;4834455;29;20045;-78
2023/03/27 04:43:39;;;;;;;8.23;1.90;;;1.00;99.90;;;0.45;100.00;100429.72;4872227;29;20045;-76
2023/03/27 04:46:06;;;;;;;10.27;1.73;;;1.00;99.90;;;0.70;100.00;100441.47;4844297;29;20043;-77
2023/03/27 04:48:33;;;;;;;12.23;2.10;;;1.10;99.90;;;0.68;100.00;100445.34;4860660;29;20120;-76
2023/03/27 04:51:05;;;;;;;7.00;1.52;;;1.10;99.90;;;0.67;100.00;100444.47;4845541;29;20060;-76
2023/03/27 04:53:35;;;;;;;13.50;2.35;;;1.10;99.90;;;0.59;100.00;100447.09;4860404;29;20121;-76
2023/03/27 04:56:01;;;;;;;;;;;1.00;99.90;;;0.54;100.00;100450.25;4852926;29;20044;-76
2023/03/27 04:58:30;;;;;;;5.65;1.50;;;1.00;99.90;;;0.53;100.00;100440.50;4873003;29;19920;-75
2023/03/27 05:00:57;;;;;;;12.45;2.00;;;1.00;99.90;;;0.55;100.00;100454.63;4844059;29;20450;-76
2023/03/27 05:03:52;;;;;;;9.80;1.42;;;1.00;99.90;;;0.49;100.00;100451.72;4872961;29;20040;-76
2023/03/27 05:06:37;;;;;;;9.25;1.80;;;1.00;99.90;;;0.64;99.55;100465.41;4876165;29;20164;-75
2023/03/27 05:09:08;;;;;;;5.47;1.77;;;1.20;99.90;;;0.60;99.61;100462.22;4844462;29;20494;-77
2023/03/27 05:11:35;;;;;;;9.95;1.83;;;1.20;99.90;;;0.76;98.89;100474.91;4875143;29;20109;-76
2023/03/27 05:14:01;;;;;;;8.60;2.05;;;1.30;99.90;;;0.78;98.62;100474.75;4876501;29;20033;-76
2023/03/27 05:16:28;;;;;;;9.25;1.67;;;1.40;99.90;;;0.86;98.48;100466.78;4847349;29;20029;-75
2023/03/27 05:18:58;;;;;;;7.13;1.40;;;1.40;99.90;;;0.83;98.62;100475.16;4856286;29;20045;-76
2023/03/27 05:21:24;;;;;;;10.30;2.15;;;1.40;99.90;;;0.79;98.33;100479.97;4866708;29;20040;-76
2023/03/27 05:23:50;;;;;;;7.60;1.65;;;1.50;99.90;;;0.87;97.77;100492.63;4879495;29;20037;-76
2023/03/27 05:26:21;;;;;;;11.88;1.98;;;1.50;99.90;;;0.95;97.93;100486.47;4870163;29;21030;-77
2023/03/27 05:28:54;;;;;;;8.25;1.77;;;1.60;99.90;;;0.88;97.99;100483.56;4863260;29;20401;-80
2023/03/27 05:31:21;;;;;;;;;;;1.50;99.90;;;0.64;98.21;100460.91;4850843;29;20085;-77
2023/03/27 05:33:58;;;;;;;9.95;1.88;;;1.30;99.90;;;0.74;99.12;100505.59;4875565;29;19923;-78
2023/03/27 05:36:28;;;;;;;7.28;1.77;;;1.20;99.90;;;0.63;99.34;100502.19;4857000;29;20485;-78
2023/03/27 05:38:57;;;;;;;10.98;1.92;;;1.20;99.90;;;0.54;100.00;100495.91;4848908;29;20041;-77
2023/03/27 05:41:31;;;;;;;8.30;1.80;;;1.20;99.90;;;0.71;99.84;100507.59;4854411;29;20133;-77
2023/03/27 05:43:57;;;;;;;8.38;2.55;;;1.20;99.90;;;0.66;100.00;100509.06;4878644;29;20036;-76
2023/03/27 05:46:24;;;;;;;7.55;1.92;;;1.20;99.90;;;0.59;100.00;100514.22;4874741;29;20486;-76
2023/03/27 05:48:58;;;;;;;7.50;1.50;;;1.20;99.90;;;0.64;100.00;100525.34;4857856;29;20617;-76
2023/03/27 05:51:24;;;;;;;10.10;1.90;;;1.10;99.90;;;0.69;100.00;100517.66;4857982;29;20036;-76
2023/03/27 05:53:50;;;;;;;10.52;2.00;;;1.10;99.90;;;0.60;100.00;100529.34;4879522;29;20039;-75
2023/03/27 05:56:21;;;;;;;7.97;1.70;;;1.00;99.90;;;0.72;100.00;100524.56;4847536;29;20481;-76
2023/03/27 05:58:52;;;;;;;11.43;2.80;;;1.10;99.90;;;0.60;100.00;100528.50;4853265;29;20036;-76
2023/03/27 06:01:19;;;;;;;8.40;1.70;;;1.00;99.90;;;0.70;100.00;100511.28;4852171;29;20041;-76
2023/03/27 06:03:48;;;;;;;5.80;1.77;;;1.10;99.90;;;0.74;99.79;100522.59;4875304;29;20081;-75
2023/03/27 06:06:17;;;;;;;9.13;1.77;;;1.30;99.90;;;0.67;99.16;100516.97;4882460;29;20055;-76
2023/03/27 06:08:45;;;;;;;8.18;1.48;;;1.40;99.90;;;0.93;99.69;100534.13;4863170;29;20025;-77
2023/03/27 06:11:14;;;;;;;10.48;1.80;;;1.40;99.90;;;1.05;97.93;100527.50;4887348;29;20040;-76
2023/03/27 06:13:47;;;;;;;9.23;1.75;;;1.60;99.90;;;1.24;96.79;100534.50;4871053;29;20033;-75
2023/03/27 06:16:29;;;;;;;10.00;2.08;;;1.70;99.90;;;1.35;96.21;100524.50;4854911;29;20034;-77
2023/03/27 06:19:11;;;;;;;9.60;2.05;;;1.80;99.90;;;1.27;95.90;100544.13;4846952;29;20126;-75
2023/03/27 06:21:45;;;;;;;5.22;1.63;;;1.80;99.90;;;1.18;95.32;100515.47;4870563;29;20061;-76
2023/03/27 06:24:11;;;;;;;8.10;1.83;;;1.80;99.90;;;1.51;94.73;100547.94;4879349;29;20392;-78
2023/03/27 06:26:39;;;;;;;6.90;1.52;;;1.80;99.90;;;1.37;94.20;100557.44;4872097;29;20045;-76
2023/03/27 06:29:05;;;;;;;9.47;1.70;;;1.80;99.90;;;1.48;93.68;100549.09;4864816;29;20121;-76
2023/03/27 06:31:32;;;;;;;8.75;1.80;;;1.90;99.90;;;1.63;92.45;100530.53;4849103;29;20303;-76
2023/03/27 06:34:08;;;;;;;6.57;1.75;;;2.00;99.90;;;1.76;91.29;100548.91;4860021;29;20033;-75
2023/03/27 06:36:41;;;;;;;8.02;1.60;;;2.20;99.90;;;1.89;90.65;100548.44;4836998;29;20436;-75
2023/03/27 06:39:09;;;;;;;9.25;1.90;;;2.30;99.90;;;2.09;90.83;100564.34;4866386;29;20121;-76
2023/03/27 06:41:36;;;;;;;8.40;1.80;;;2.40;99.90;;;2.29;90.57;100570.28;4867469;29;20042;-77
2023/03/27 06:44:31;;;;;;;6.68;1.77;;;2.50;99.90;;;2.25;89.33;100540.13;4858278;29;20045;-77
2023/03/27 06:47:09;;;;;;;8.32;1.67;;;2.60;99.90;;;2.34;89.39;100567.94;4846266;29;20371;-77
2023/03/27 06:50:06;;;;;;;8.30;1.67;;;2.60;99.90;;;2.12;89.65;100583.72;4857707;29;20049;-77
2023/03/27 06:52:32;;;;;;;;;;;2.50;99.90;;;1.97;89.96;100553.03;4857496;29;20037;-76
2023/03/27 06:55:15;;;;;;;9.48;2.05;;;2.50;99.90;;;2.41;88.73;100573.50;4859309;29;19924;-76
2023/03/27 06:57:56;;;;;;;9.40;2.50;;;2.60;99.90;;;1.95;88.63;100590.03;4861672;29;20045;-76
2023/03/27 07:00:27;;;;;;;10.88;1.58;;;2.60;99.90;;;2.11;89.67;100592.75;4875360;29;20081;-74
2023/03/27 07:03:30;;;;;;;7.10;1.77;;;2.50;99.90;;;2.17;89.47;100585.91;4845862;29;20033;-75
2023/03/27 07:06:19;;;;;;;9.55;2.10;;;2.60;99.90;;;2.29;89.44;100600.75;4874672;29;20049;-76
2023/03/27 07:08:50;;;;;;;5.70;1.40;;;2.70;99.90;;;2.44;88.53;100600.97;4878469;29;20037;-76
2023/03/27 07:11:17;;;;;;;9.75;1.90;;;2.80;99.90;;;2.41;87.91;100604.00;4868796;29;20044;-78
2023/03/27 07:13:52;;;;;;;6.72;1.65;;;2.80;99.90;;;2.65;87.38;100604.19;4856154;29;20033;-78
2023/03/27 07:16:24;;;;;;;7.13;1.40;;;2.80;99.90;;;2.36;87.16;100594.72;4878398;29;20060;-77
2023/03/27 07:18:50;;;;;;;6.22;1.92;;;2.90;99.90;;;2.19;88.23;100626.94;4878487;29;20397;-76
2023/03/27 07:21:16;;;;;;;7.10;2.00;;;2.80;99.90;;;2.65;87.85;100606.88;4863502;29;20041;-77
2023/03/27 07:23:42;;;;;;;6.00;1.85;;;2.90;99.90;;;2.71;86.18;100604.38;4861472;29;20037;-77
2023/03/27 07:26:10;;;;;;;8.25;2.13;;;3.20;99.90;;;2.34;87.01;100619.09;4868045;29;20044;-78
2023/03/27 07:28:59;;;;;;;9.32;2.88;;;3.00;99.90;;;2.29;87.77;100627.69;4856687;29;20041;-76
2023/03/27 07:31:26;;;;;;;8.45;2.05;;;2.90;99.90;;;2.26;87.81;100635.22;4832269;29;20132;-77
2023/03/27 07:33:51;;;;;;;9.95;1.80;;;2.90;99.90;;;2.51;87.68;100630.75;4831270;29;20034;-76
2023/03/27 07:36:27;;;;;;;9.73;2.22;;;3.00;99.90;;;2.59;86.96;100638.00;4852487;29;20478;-78
2023/03/27 07:39:03;;;;;;;14.15;1.85;;;3.10;99.90;;;2.61;86.97;100627.09;4849287;29;20438;-84
2023/03/27 07:41:29;;;;;;;8.32;2.33;;;3.30;99.90;;;2.88;87.22;100631.34;4878812;29;20148;-80
2023/03/27 07:43:58;;;;;;;7.07;1.92;;;3.30;99.90;;;2.69;85.81;100637.88;4880677;29;20060;-79
2023/03/27 07:46:26;;;;;;;;;;;3.40;99.90;;;2.79;87.51;100575.75;4865816;29;20067;-78
2023/03/27 07:48:54;;;;;;;9.10;1.80;;;3.50;99.90;;;3.45;85.96;100643.16;4846432;29;19919;-77
2023/03/27 07:51:22;;;;;;;7.28;2.08;;;3.70;99.90;;;3.57;84.75;100620.19;4875587;29;20515;-79
2023/03/27 07:53:53;;;;;;;7.50;2.47;;;4.00;99.90;;;3.67;82.84;100633.50;4874399;29;20033;-78
2023/03/27 07:56:23;;;;;;;9.55;2.00;;;4.10;99.90;;;3.33;83.43;100633.72;4878205;29;20033;-79
2023/03/27 07:59:10;;;;;;;7.68;2.03;;;3.90;99.90;;;3.59;82.13;100611.94;4873471;29;20128;-79
2023/03/27 08:01:37;;;;;;;9.77;2.00;;;4.10;99.90;;;4.03;82.30;100643.03;4879506;29;20524;-79
2023/03/27 08:04:04;;;;;;;6.55;2.50;;;4.30;99.90;;;3.76;79.64;100623.53;4852816;29;20045;-81
2023/03/27 08:06:33;;;;;;;11.05;2.05;;;4.40;99.90;;;4.14;78.11;100631.84;4864279;29;20396;-80
2023/03/27 08:09:00;;;;;;;10.77;1.92;;;4.60;99.90;;;4.09;74.94;100557.78;4840523;29;20041;-79
2023/03/27 08:11:27;;;;;;;9.68;1.90;;;4.80;99.90;;;4.43;75.73;100619.56;4878614;29;20041;-78
2023/03/27 08:13:53;;;;;;;10.20;1.92;;;4.90;99.90;;;3.92;76.41;100625.34;4869185;29;20092;-79
2023/03/27 08:16:20;;;;;;;6.50;1.55;;;4.80;99.90;;;4.22;76.73;100654.41;4867730;29;20072;-78
2023/03/27 08:18:48;;;;;;;9.15;1.40;;;4.70;99.90;;;4.13;76.30;100645.53;4867029;29;20033;-78
2023/03/27 08:21:15;;;;;;;8.40;2.13;;;4.70;99.90;;;4.56;75.08;100624.38;4852400;29;20057;-79
2023/03/27 08:23:42;;;;;;;9.77;2.28;;;5.00;99.90;;;5.19;72.90;100628.84;4870906;29;20030;-80
2023/03/27 08:26:40;;;;;;;10.77;1.70;;;5.40;99.90;;;5.08;72.14;100616.59;4832897;29;20055;-79
2023/03/27 08:29:10;;;;;;;5.82;1.60;;;5.60;99.90;;;4.92;70.76;100631.09;4879862;29;20033;-80
2023/03/27 08:31:37;;;;;;;6.75;1.67;;;5.70;99.90;;;4.93;72.23;100621.13;4859230;29;20037;-78
2023/03/27 08:34:04;;;;;;;8.82;2.05;;;5.60;99.90;;;4.87;70.44;100647.84;4832869;29;20478;-79
2023/03/27 08:36:51;;;;;;;4.63;1.48;;;5.60;99.90;;;4.64;70.73;100633.44;4864518;29;20036;-80
2023/03/27 08:39:17;;;;;;;13.05;2.50;;;5.40;99.90;;;4.14;71.99;100647.22;4858574;29;20052;-80
2023/03/27 08:42:07;;;;;;;7.22;1.42;;;5.00;99.90;;;4.13;72.79;100661.75;4877337;29;20072;-79
2023/03/27 08:44:37;;;;;;;8.57;1.70;;;4.90;99.90;;;4.25;73.02;100654.94;4857482;29;20037;-79
2023/03/27 08:47:22;;;;;;;8.98;2.35;;;4.80;99.90;;;4.09;72.20;100661.22;4871370;29;20037;-77
2023/03/27 08:50:04;;;;;;;13.23;5.30;;;4.90;99.90;;;4.22;74.06;100678.72;4849805;29;20041;-78
2023/03/27 08:52:42;;;;;;;10.60;2.63;;;4.80;99.90;;;4.07;74.54;100660.56;4852110;29;20119;-80
2023/03/27 08:55:21;;;;;;;6.80;1.90;;;4.80;99.90;;;4.49;72.55;100657.69;4848224;29;20049;-79
2023/03/27 08:57:53;;;;;;;7.93;2.10;;;5.10;99.90;;;4.94;71.27;100676.88;4852334;29;20043;-78
2023/03/27 09:00:34;;;;;;;10.90;2.72;;;5.40;99.90;;;4.67;69.49;100666.38;4854549;29;20042;-81
2023/03/27 09:03:33;;;;;;;4.72;1.15;;;5.50;99.90;;;4.90;67.77;100662.88;4846824;29;20303;-77
2023/03/27 09:06:22;;;;;;;7.28;2.83;;;5.60;99.90;;;5.09;67.22;100655.31;4865675;29;20072;-81
2023/03/27 09:09:08;;;;;;;8.98;1.90;;;5.70;99.90;;;5.50;68.18;100644.13;4849366;29;20030;-80
2023/03/27 09:11:51;;;;;;;11.60;1.85;;;6.00;99.90;;;5.51;66.74;100666.66;4869126;29;20505;-79
2023/03/27 09:14:39;;;;;;;9.18;1.40;;;6.00;99.90;;;5.48;64.53;100670.53;4848556;29;20028;-77
2023/03/27 09:17:16;;;;;;;;;;;6.10;99.90;;;5.16;64.64;100661.69;4875329;29;20537;-76
2023/03/27 09:20:07;;;;;;;8.97;2.23;;;6.00;99.90;;;6.24;62.89;100652.53;4855148;29;19963;-79
2023/03/27 09:22:43;;;;;;;6.38;2.05;;;6.70;99.90;;;5.46;63.43;100661.78;4849567;29;20292;-78
2023/03/27 09:25:34;;;;;;;7.45;1.70;;;6.30;99.90;;;5.14;62.98;100659.13;4842334;29;20324;-79
2023/03/27 09:28:23;;;;;;;6.28;1.30;;;6.00;99.90;;;5.15;63.89;100660.00;4855672;29;20549;-77
2023/03/27 09:31:30;;;;;;;7.18;1.90;;;5.80;99.90;;;5.17;62.86;100656.09;4865445;29;20124;-79
2023/03/27 09:34:05;;;;;;;4.50;1.40;;;5.80;99.90;;;5.15;61.79;100650.00;4853221;29;20045;-79
2023/03/27 09:36:34;;;;;;;8.90;1.40;;;5.80;99.90;;;5.81;61.57;100651.28;4868488;29;20131;-78
2023/03/27 09:39:21;;;;;;;6.75;1.60;;;6.20;99.90;;;5.78;62.59;100640.81;4864477;29;20374;-79
2023/03/27 09:41:56;;;;;;;5.10;1.30;;;6.30;99.90;;;6.13;60.17;100641.16;4862976;29;20037;-79
2023/03/27 09:44:32;;;;;;;7.22;1.60;;;6.70;99.90;;;6.53;58.93;100642.69;4856405;29;20033;-79
2023/03/27 09:47:19;;;;;;;7.45;1.60;;;6.80;99.90;;;6.28;58.77;100651.97;4854005;29;20067;-79
2023/03/27 09:50:07;;;;;;;8.82;1.85;;;7.00;99.90;;;7.05;58.87;100633.44;4870370;29;20038;-77
2023/03/27 09:52:51;;;;;;;5.93;1.65;;;7.50;99.90;;;7.10;57.44;100634.72;4877121;29;20124;-81
2023/03/27 09:56:11;;;;;;;5.95;1.15;;;7.70;99.90;;;5.70;58.75;100635.50;4845004;29;20048;-81
2023/03/27 09:58:45;;;;;;;5.00;1.30;;;7.00;99.90;;;5.21;59.22;100629.50;4848554;29;20033;-81
2023/03/27 10:01:29;;;;;;;14.07;1.75;;;6.80;99.90;;;6.77;56.65;100652.34;4846264;29;20128;-81
2023/03/27 10:04:16;;;;;;;7.75;2.05;;;7.40;99.90;;;7.86;55.64;100623.22;4852801;29;20038;-79
2023/03/27 10:06:54;;;;;;;5.68;1.90;;;8.60;98.80;;;6.90;54.27;100646.25;4855502;29;20128;-81
2023/03/27 10:10:10;;;;;;;6.85;1.70;;;8.00;96.30;;;7.20;54.26;100640.69;4866837;29;20041;-83
2023/03/27 10:13:01;;;;;;;7.53;1.73;;;7.70;97.50;;;6.66;56.24;100653.69;4876432;29;20042;-79
2023/03/27 10:15:37;;;;;;;;;;;7.10;99.60;;;6.26;57.97;100662.16;4875670;29;20497;-79
2023/03/27 10:18:26;;;;;;;4.72;1.38;;;6.80;99.90;;;5.64;58.65;100674.13;4845435;29;20368;-80
2023/03/27 10:21:37;;;;;;;6.70;1.05;;;6.40;99.90;;;5.33;59.41;100601.00;4867688;29;20119;-80
2023/03/27 10:24:19;;;;;;;2.95;1.20;;;6.10;99.90;;;6.13;60.62;100668.25;4864002;29;20032;-79
2023/03/27 10:27:24;;;;;;;4.47;1.48;;;6.20;99.90;;;7.03;58.73;100668.06;4856496;29;20048;-78
2023/03/27 10:30:36;;;;;;;3.87;1.20;;;6.70;99.90;;;8.51;51.13;100626.72;4884294;29;20143;-78
2023/03/27 10:33:36;;;;;;;3.00;0.90;;;9.20;94.30;;;7.57;50.60;100622.41;4857296;29;20044;-77
2023/03/27 10:36:46;;;;;;;5.10;1.27;;;8.70;92.00;;;8.97;50.07;100611.53;4857200;29;20045;-78
2023/03/27 10:39:33;;;;;;;4.80;1.35;;;9.60;92.50;;;8.73;51.05;100652.69;4849644;29;20037;-78
2023/03/27 10:42:16;;;;;;;7.57;1.40;;;9.80;92.10;;;6.71;55.64;100670.22;4853028;29;20041;-78
2023/03/27 10:44:48;;;;;;;5.18;1.20;;;8.30;94.60;;;6.47;61.04;100704.75;4867115;29;20493;-79
2023/03/27 10:47:22;;;;;;;7.30;1.42;;;7.40;99.90;;;6.01;65.24;100708.50;4849950;29;20068;-79
2023/03/27 10:50:22;;;;;;;8.25;1.30;;;6.70;99.90;;;7.30;62.42;100711.75;4870162;29;20040;-77
2023/03/27 10:53:15;;;;;;;6.20;1.23;;;6.90;99.90;;;10.13;54.56;100668.47;4884075;29;20037;-80
2023/03/27 10:56:32;;;;;;;5.32;1.23;;;9.30;99.20;;;8.89;51.64;100661.53;4873870;29;20039;-78
2023/03/27 10:59:07;;;;;;;5.70;1.35;;;10.40;91.80;;;8.10;51.76;100659.09;4865126;29;20234;-78
2023/03/27 11:01:46;;;;;;;4.50;1.23;;;9.50;91.80;;;7.42;54.96;100687.63;4867621;29;20121;-80
2023/03/27 11:04:42;;;;;;;3.55;0.93;;;8.60;94.70;;;4.51;66.11;100763.72;4871949;29;20394;-77
2023/03/27 11:07:21;;;;;;;5.80;0.50;;;6.20;99.90;;;2.97;81.97;100855.91;4878666;29;20033;-77
2023/03/27 11:10:01;;;;;;;6.53;0.75;;;4.20;99.90;;;2.38;92.10;100872.75;4856572;29;20030;-78